sensor_id;sensor_type;location;lat;lon;timestamp;temperature;humidity
19809;DHT22;48538;32.784;-96.802;2022-07-06T00:00:04;35.20;99.90
19809;DHT22;48538;32.784;-96.802;2022-07-06T00:02:30;35.30;99.90
19809;DHT22;48538;32.784;-96.802;2022-07-06T00:04:56;35.30;99.90
19809;DHT22;48538;32.784;-96.802;2022-07-06T00:07:23;35.60;99.90
19809;DHT22;48538;32.784;-96.802;2022-07-06T00:09:50;35.60;99.90
19809;DHT22;48538;32.784;-96.802;2022-07-06T00:12:16;35.60;99.90
19809;DHT22;48538;32.784;-96.802;2022-07-06T00:14:42;35.60;99.90
19809;DHT22;48538;32.784;-96.802;2022-07-06T00:17:08;35.50;99.90
19809;DHT22;48538;32.784;-96.802;2022-07-06T00:19:34;35.70;99.90
19809;DHT22;48538;32.784;-96.802;2022-07-06T00:22:01;35.60;99.90
19809;DHT22;48538;32.784;-96.802;2022-07-06T00:24:27;35.70;99.90
19809;DHT22;48538;32.784;-96.802;2022-07-06T00:26:53;35.70;99.90
19809;DHT22;48538;32.784;-96.802;2022-07-06T00:29:20;35.60;99.90
19809;DHT22;48538;32.784;-96.802;2022-07-06T00:31:46;35.60;99.90
19809;DHT22;48538;32.784;-96.802;2022-07-06T00:34:13;35.50;99.90
19809;DHT22;48538;32.784;-96.802;2022-07-06T00:36:40;35.50;99.90
19809;DHT22;48538;32.784;-96.802;2022-07-06T00:39:06;35.60;99.90
19809;DHT22;48538;32.784;-96.802;2022-07-06T00:41:32;35.60;99.90
19809;DHT22;48538;32.784;-96.802;2022-07-06T00:43:58;35.70;99.90
19809;DHT22;48538;32.784;-96.802;2022-07-06T00:46:31;35.80;99.90
19809;DHT22;48538;32.784;-96.802;2022-07-06T00:48:57;35.80;99.90
19809;DHT22;48538;32.784;-96.802;2022-07-06T00:51:28;35.80;99.90
19809;DHT22;48538;32.784;-96.802;2022-07-06T00:54:02;35.90;99.90
19809;DHT22;48538;32.784;-96.802;2022-07-06T00:56:30;35.90;99.90
19809;DHT22;48538;32.784;-96.802;2022-07-06T00:58:58;36.00;99.90
19809;DHT22;48538;32.784;-96.802;2022-07-06T01:01:27;36.00;99.90
19809;DHT22;48538;32.784;-96.802;2022-07-06T01:03:54;36.10;99.90
19809;DHT22;48538;32.784;-96.802;2022-07-06T01:06:20;36.20;99.90
19809;DHT22;48538;32.784;-96.802;2022-07-06T01:08:46;36.10;99.90
19809;DHT22;48538;32.784;-96.802;2022-07-06T01:11:13;36.10;99.90
19809;DHT22;48538;32.784;-96.802;2022-07-06T01:13:40;35.90;99.90
19809;DHT22;48538;32.784;-96.802;2022-07-06T01:16:07;35.90;99.90
19809;DHT22;48538;32.784;-96.802;2022-07-06T01:18:33;35.90;99.90
19809;DHT22;48538;32.784;-96.802;2022-07-06T01:21:11;35.80;99.90
19809;DHT22;48538;32.784;-96.802;2022-07-06T01:23:44;35.80;99.90
19809;DHT22;48538;32.784;-96.802;2022-07-06T01:26:13;35.60;99.90
19809;DHT22;48538;32.784;-96.802;2022-07-06T01:28:40;35.50;99.90
19809;DHT22;48538;32.784;-96.802;2022-07-06T01:31:21;35.30;99.90
19809;DHT22;48538;32.784;-96.802;2022-07-06T01:33:52;35.10;99.90
19809;DHT22;48538;32.784;-96.802;2022-07-06T01:36:19;34.80;99.90
19809;DHT22;48538;32.784;-96.802;2022-07-06T01:38:56;34.50;99.90
19809;DHT22;48538;32.784;-96.802;2022-07-06T01:41:25;34.30;99.90
19809;DHT22;48538;32.784;-96.802;2022-07-06T01:43:52;34.00;99.90
19809;DHT22;48538;32.784;-96.802;2022-07-06T01:46:18;33.90;99.90
19809;DHT22;48538;32.784;-96.802;2022-07-06T01:48:45;33.60;99.90
19809;DHT22;48538;32.784;-96.802;2022-07-06T01:51:11;33.50;99.90
19809;DHT22;48538;32.784;-96.802;2022-07-06T01:53:38;33.30;99.90
19809;DHT22;48538;32.784;-96.802;2022-07-06T01:56:05;33.20;99.90
19809;DHT22;48538;32.784;-96.802;2022-07-06T01:58:31;33.00;99.90
19809;DHT22;48538;32.784;-96.802;2022-07-06T02:00:57;32.90;99.90
19809;DHT22;48538;32.784;-96.802;2022-07-06T02:03:24;32.90;99.90
19809;DHT22;48538;32.784;-96.802;2022-07-06T02:05:50;32.70;99.90
19809;DHT22;48538;32.784;-96.802;2022-07-06T02:08:17;32.70;99.90
19809;DHT22;48538;32.784;-96.802;2022-07-06T02:10:43;32.60;99.90
19809;DHT22;48538;32.784;-96.802;2022-07-06T02:13:09;32.50;99.90
19809;DHT22;48538;32.784;-96.802;2022-07-06T02:15:36;32.50;99.90
19809;DHT22;48538;32.784;-96.802;2022-07-06T02:18:02;32.40;99.90
19809;DHT22;48538;32.784;-96.802;2022-07-06T02:20:28;32.30;99.90
19809;DHT22;48538;32.784;-96.802;2022-07-06T02:22:55;32.30;99.90
19809;DHT22;48538;32.784;-96.802;2022-07-06T02:25:21;32.20;99.90
19809;DHT22;48538;32.784;-96.802;2022-07-06T02:27:47;32.20;99.90
19809;DHT22;48538;32.784;-96.802;2022-07-06T02:30:14;32.10;99.90
19809;DHT22;48538;32.784;-96.802;2022-07-06T02:32:40;32.10;99.90
19809;DHT22;48538;32.784;-96.802;2022-07-06T02:35:06;32.00;99.90
19809;DHT22;48538;32.784;-96.802;2022-07-06T02:37:33;32.00;99.90
19809;DHT22;48538;32.784;-96.802;2022-07-06T02:39:59;31.90;99.90
19809;DHT22;48538;32.784;-96.802;2022-07-06T02:42:25;31.90;99.90
19809;DHT22;48538;32.784;-96.802;2022-07-06T02:44:54;31.90;99.90
19809;DHT22;48538;32.784;-96.802;2022-07-06T02:47:21;31.80;99.90
19809;DHT22;48538;32.784;-96.802;2022-07-06T02:49:47;31.80;99.90
19809;DHT22;48538;32.784;-96.802;2022-07-06T02:52:14;31.70;99.90
19809;DHT22;48538;32.784;-96.802;2022-07-06T02:54:40;31.60;99.90
19809;DHT22;48538;32.784;-96.802;2022-07-06T02:57:06;31.70;99.90
19809;DHT22;48538;32.784;-96.802;2022-07-06T02:59:32;31.60;99.90
19809;DHT22;48538;32.784;-96.802;2022-07-06T03:01:59;31.50;99.90
19809;DHT22;48538;32.784;-96.802;2022-07-06T03:04:25;31.40;99.90
19809;DHT22;48538;32.784;-96.802;2022-07-06T03:06:51;31.40;99.90
19809;DHT22;48538;32.784;-96.802;2022-07-06T03:09:17;31.40;99.90
19809;DHT22;48538;32.784;-96.802;2022-07-06T03:11:44;31.40;99.90
19809;DHT22;48538;32.784;-96.802;2022-07-06T03:14:10;31.40;99.90
19809;DHT22;48538;32.784;-96.802;2022-07-06T03:16:36;31.40;99.90
19809;DHT22;48538;32.784;-96.802;2022-07-06T03:19:02;31.30;99.90
19809;DHT22;48538;32.784;-96.802;2022-07-06T03:21:29;31.20;99.90
19809;DHT22;48538;32.784;-96.802;2022-07-06T03:23:55;31.20;99.90
19809;DHT22;48538;32.784;-96.802;2022-07-06T03:26:21;31.20;99.90
19809;DHT22;48538;32.784;-96.802;2022-07-06T03:28:47;31.10;99.90
19809;DHT22;48538;32.784;-96.802;2022-07-06T03:31:14;31.00;99.90
19809;DHT22;48538;32.784;-96.802;2022-07-06T03:33:40;31.00;99.90
19809;DHT22;48538;32.784;-96.802;2022-07-06T03:36:07;31.00;99.90
19809;DHT22;48538;32.784;-96.802;2022-07-06T03:38:34;30.80;99.90
19809;DHT22;48538;32.784;-96.802;2022-07-06T03:41:00;30.90;99.90
19809;DHT22;48538;32.784;-96.802;2022-07-06T03:43:26;30.80;99.90
19809;DHT22;48538;32.784;-96.802;2022-07-06T03:45:52;30.70;99.90
19809;DHT22;48538;32.784;-96.802;2022-07-06T03:48:22;30.70;99.90
19809;DHT22;48538;32.784;-96.802;2022-07-06T03:50:48;30.60;99.90
19809;DHT22;48538;32.784;-96.802;2022-07-06T03:53:14;30.50;99.90
19809;DHT22;48538;32.784;-96.802;2022-07-06T03:55:41;30.50;99.90
19809;DHT22;48538;32.784;-96.802;2022-07-06T03:58:07;30.40;99.90
19809;DHT22;48538;32.784;-96.802;2022-07-06T04:00:33;30.40;99.90
19809;DHT22;48538;32.784;-96.802;2022-07-06T04:03:00;30.40;99.90
19809;DHT22;48538;32.784;-96.802;2022-07-06T04:05:27;30.40;99.90
19809;DHT22;48538;32.784;-96.802;2022-07-06T04:07:53;30.50;99.90
19809;DHT22;48538;32.784;-96.802;2022-07-06T04:10:19;30.40;99.90
19809;DHT22;48538;32.784;-96.802;2022-07-06T04:12:46;30.50;99.90
19809;DHT22;48538;32.784;-96.802;2022-07-06T04:15:12;30.40;99.90
19809;DHT22;48538;32.784;-96.802;2022-07-06T04:17:39;30.40;99.90
19809;DHT22;48538;32.784;-96.802;2022-07-06T04:20:23;30.40;99.90
19809;DHT22;48538;32.784;-96.802;2022-07-06T04:22:50;30.40;99.90
19809;DHT22;48538;32.784;-96.802;2022-07-06T04:25:17;30.40;99.90
19809;DHT22;48538;32.784;-96.802;2022-07-06T04:27:44;30.30;99.90
19809;DHT22;48538;32.784;-96.802;2022-07-06T04:30:10;30.40;99.90
19809;DHT22;48538;32.784;-96.802;2022-07-06T04:32:37;30.30;99.90
19809;DHT22;48538;32.784;-96.802;2022-07-06T04:35:05;30.30;99.90
19809;DHT22;48538;32.784;-96.802;2022-07-06T04:37:32;30.20;99.90
19809;DHT22;48538;32.784;-96.802;2022-07-06T04:39:58;30.20;99.90
19809;DHT22;48538;32.784;-96.802;2022-07-06T04:42:25;30.20;99.90
19809;DHT22;48538;32.784;-96.802;2022-07-06T04:44:51;30.20;99.90
19809;DHT22;48538;32.784;-96.802;2022-07-06T04:47:17;30.10;99.90
19809;DHT22;48538;32.784;-96.802;2022-07-06T04:49:44;30.10;99.90
19809;DHT22;48538;32.784;-96.802;2022-07-06T04:52:10;30.10;99.90
19809;DHT22;48538;32.784;-96.802;2022-07-06T04:54:36;30.00;99.90
19809;DHT22;48538;32.784;-96.802;2022-07-06T04:57:03;30.00;99.90
19809;DHT22;48538;32.784;-96.802;2022-07-06T04:59:30;30.00;99.90
19809;DHT22;48538;32.784;-96.802;2022-07-06T05:01:56;29.90;99.90
19809;DHT22;48538;32.784;-96.802;2022-07-06T05:09:25;29.90;99.90
19809;DHT22;48538;32.784;-96.802;2022-07-06T05:11:51;29.90;99.90
19809;DHT22;48538;32.784;-96.802;2022-07-06T05:14:17;29.80;99.90
19809;DHT22;48538;32.784;-96.802;2022-07-06T05:16:44;29.80;99.90
19809;DHT22;48538;32.784;-96.802;2022-07-06T05:19:10;29.80;99.90
19809;DHT22;48538;32.784;-96.802;2022-07-06T05:21:36;29.80;99.90
19809;DHT22;48538;32.784;-96.802;2022-07-06T05:24:03;29.80;99.90
19809;DHT22;48538;32.784;-96.802;2022-07-06T05:26:29;29.80;99.90
19809;DHT22;48538;32.784;-96.802;2022-07-06T05:28:55;29.70;99.90
19809;DHT22;48538;32.784;-96.802;2022-07-06T05:31:22;29.60;99.90
19809;DHT22;48538;32.784;-96.802;2022-07-06T05:33:48;29.50;99.90
19809;DHT22;48538;32.784;-96.802;2022-07-06T05:36:14;29.50;99.90
19809;DHT22;48538;32.784;-96.802;2022-07-06T05:38:41;29.50;99.90
19809;DHT22;48538;32.784;-96.802;2022-07-06T05:41:07;29.40;99.90
19809;DHT22;48538;32.784;-96.802;2022-07-06T05:43:36;29.40;99.90
19809;DHT22;48538;32.784;-96.802;2022-07-06T05:46:03;29.40;99.90
19809;DHT22;48538;32.784;-96.802;2022-07-06T05:48:29;29.30;99.90
19809;DHT22;48538;32.784;-96.802;2022-07-06T05:51:14;29.40;99.90
19809;DHT22;48538;32.784;-96.802;2022-07-06T05:53:40;29.40;99.90
19809;DHT22;48538;32.784;-96.802;2022-07-06T05:56:07;29.40;99.90
19809;DHT22;48538;32.784;-96.802;2022-07-06T05:58:33;29.40;99.90
19809;DHT22;48538;32.784;-96.802;2022-07-06T06:00:59;29.40;99.90
19809;DHT22;48538;32.784;-96.802;2022-07-06T06:03:26;29.50;99.90
19809;DHT22;48538;32.784;-96.802;2022-07-06T06:05:52;29.50;99.90
19809;DHT22;48538;32.784;-96.802;2022-07-06T06:08:18;29.50;99.90
19809;DHT22;48538;32.784;-96.802;2022-07-06T06:10:44;29.40;99.90
19809;DHT22;48538;32.784;-96.802;2022-07-06T06:13:11;29.40;99.90
19809;DHT22;48538;32.784;-96.802;2022-07-06T06:15:37;29.40;99.90
19809;DHT22;48538;32.784;-96.802;2022-07-06T06:18:04;29.40;99.90
19809;DHT22;48538;32.784;-96.802;2022-07-06T06:20:30;29.40;99.90
19809;DHT22;48538;32.784;-96.802;2022-07-06T06:22:57;29.30;99.90
19809;DHT22;48538;32.784;-96.802;2022-07-06T06:25:36;29.30;99.90
19809;DHT22;48538;32.784;-96.802;2022-07-06T06:28:10;29.20;99.90
19809;DHT22;48538;32.784;-96.802;2022-07-06T06:30:42;29.20;99.90
19809;DHT22;48538;32.784;-96.802;2022-07-06T06:33:18;29.20;99.90
19809;DHT22;48538;32.784;-96.802;2022-07-06T06:35:49;29.20;99.90
19809;DHT22;48538;32.784;-96.802;2022-07-06T06:38:17;29.20;99.90
19809;DHT22;48538;32.784;-96.802;2022-07-06T06:40:44;29.20;99.90
19809;DHT22;48538;32.784;-96.802;2022-07-06T06:43:11;29.30;99.90
19809;DHT22;48538;32.784;-96.802;2022-07-06T06:45:37;29.20;99.90
19809;DHT22;48538;32.784;-96.802;2022-07-06T06:48:04;29.30;99.90
19809;DHT22;48538;32.784;-96.802;2022-07-06T06:50:30;29.20;99.90
19809;DHT22;48538;32.784;-96.802;2022-07-06T06:52:56;29.20;99.90
19809;DHT22;48538;32.784;-96.802;2022-07-06T06:55:23;29.10;99.90
19809;DHT22;48538;32.784;-96.802;2022-07-06T06:57:50;29.10;99.90
19809;DHT22;48538;32.784;-96.802;2022-07-06T07:00:16;29.10;99.90
19809;DHT22;48538;32.784;-96.802;2022-07-06T07:02:42;29.00;99.90
19809;DHT22;48538;32.784;-96.802;2022-07-06T07:05:10;29.00;99.90
19809;DHT22;48538;32.784;-96.802;2022-07-06T07:07:36;29.00;99.90
19809;DHT22;48538;32.784;-96.802;2022-07-06T07:10:04;28.90;99.90
19809;DHT22;48538;32.784;-96.802;2022-07-06T07:12:30;28.90;99.90
19809;DHT22;48538;32.784;-96.802;2022-07-06T07:14:57;28.80;99.90
19809;DHT22;48538;32.784;-96.802;2022-07-06T07:17:23;28.70;99.90
19809;DHT22;48538;32.784;-96.802;2022-07-06T07:19:49;28.70;99.90
19809;DHT22;48538;32.784;-96.802;2022-07-06T07:22:15;28.70;99.90
19809;DHT22;48538;32.784;-96.802;2022-07-06T07:24:42;28.60;99.90
19809;DHT22;48538;32.784;-96.802;2022-07-06T07:27:08;28.60;99.90
19809;DHT22;48538;32.784;-96.802;2022-07-06T07:29:34;28.50;99.90
19809;DHT22;48538;32.784;-96.802;2022-07-06T07:32:00;28.60;99.90
19809;DHT22;48538;32.784;-96.802;2022-07-06T07:34:27;28.50;99.90
19809;DHT22;48538;32.784;-96.802;2022-07-06T07:36:53;28.50;99.90
19809;DHT22;48538;32.784;-96.802;2022-07-06T07:39:19;28.50;99.90
19809;DHT22;48538;32.784;-96.802;2022-07-06T07:41:45;28.50;99.90
19809;DHT22;48538;32.784;-96.802;2022-07-06T07:44:12;28.50;99.90
19809;DHT22;48538;32.784;-96.802;2022-07-06T07:46:38;28.50;99.90
19809;DHT22;48538;32.784;-96.802;2022-07-06T07:49:04;28.50;99.90
19809;DHT22;48538;32.784;-96.802;2022-07-06T07:51:30;28.50;99.90
19809;DHT22;48538;32.784;-96.802;2022-07-06T07:53:57;28.50;99.90
19809;DHT22;48538;32.784;-96.802;2022-07-06T07:56:23;28.50;99.90
19809;DHT22;48538;32.784;-96.802;2022-07-06T07:58:49;28.50;99.90
19809;DHT22;48538;32.784;-96.802;2022-07-06T08:01:15;28.50;99.90
19809;DHT22;48538;32.784;-96.802;2022-07-06T08:03:42;28.40;99.90
19809;DHT22;48538;32.784;-96.802;2022-07-06T08:06:08;28.40;99.90
19809;DHT22;48538;32.784;-96.802;2022-07-06T08:08:34;28.40;99.90
19809;DHT22;48538;32.784;-96.802;2022-07-06T08:11:01;28.30;99.90
19809;DHT22;48538;32.784;-96.802;2022-07-06T08:13:27;28.30;99.90
19809;DHT22;48538;32.784;-96.802;2022-07-06T08:15:53;28.20;99.90
19809;DHT22;48538;32.784;-96.802;2022-07-06T08:18:20;28.20;99.90
19809;DHT22;48538;32.784;-96.802;2022-07-06T08:20:46;28.10;99.90
19809;DHT22;48538;32.784;-96.802;2022-07-06T08:23:12;28.10;99.90
19809;DHT22;48538;32.784;-96.802;2022-07-06T08:25:38;28.10;99.90
19809;DHT22;48538;32.784;-96.802;2022-07-06T08:28:05;28.10;99.90
19809;DHT22;48538;32.784;-96.802;2022-07-06T08:30:31;28.00;99.90
19809;DHT22;48538;32.784;-96.802;2022-07-06T08:33:01;28.00;99.90
19809;DHT22;48538;32.784;-96.802;2022-07-06T08:35:27;27.90;99.90
19809;DHT22;48538;32.784;-96.802;2022-07-06T08:37:54;27.90;99.90
19809;DHT22;48538;32.784;-96.802;2022-07-06T08:40:20;28.00;99.90
19809;DHT22;48538;32.784;-96.802;2022-07-06T08:42:47;28.00;99.90
19809;DHT22;48538;32.784;-96.802;2022-07-06T08:45:20;27.90;99.90
19809;DHT22;48538;32.784;-96.802;2022-07-06T08:47:49;27.90;99.90
19809;DHT22;48538;32.784;-96.802;2022-07-06T08:50:16;27.90;99.90
19809;DHT22;48538;32.784;-96.802;2022-07-06T08:52:42;27.90;99.90
19809;DHT22;48538;32.784;-96.802;2022-07-06T08:55:09;27.80;99.90
19809;DHT22;48538;32.784;-96.802;2022-07-06T08:57:35;27.80;99.90
19809;DHT22;48538;32.784;-96.802;2022-07-06T09:00:07;27.80;99.90
19809;DHT22;48538;32.784;-96.802;2022-07-06T09:02:35;27.70;99.90
19809;DHT22;48538;32.784;-96.802;2022-07-06T09:05:02;27.70;99.90
19809;DHT22;48538;32.784;-96.802;2022-07-06T09:07:29;27.70;99.90
19809;DHT22;48538;32.784;-96.802;2022-07-06T09:09:57;27.60;99.90
19809;DHT22;48538;32.784;-96.802;2022-07-06T09:12:27;27.60;99.90
19809;DHT22;48538;32.784;-96.802;2022-07-06T09:14:57;27.60;99.90
19809;DHT22;48538;32.784;-96.802;2022-07-06T09:17:27;27.60;99.90
19809;DHT22;48538;32.784;-96.802;2022-07-06T09:19:55;27.60;99.90
19809;DHT22;48538;32.784;-96.802;2022-07-06T09:22:40;27.60;99.90
19809;DHT22;48538;32.784;-96.802;2022-07-06T09:25:12;27.60;99.90
19809;DHT22;48538;32.784;-96.802;2022-07-06T09:27:40;27.60;99.90
19809;DHT22;48538;32.784;-96.802;2022-07-06T09:30:08;27.60;99.90
19809;DHT22;48538;32.784;-96.802;2022-07-06T09:32:49;27.50;99.90
19809;DHT22;48538;32.784;-96.802;2022-07-06T09:35:37;27.50;99.90
19809;DHT22;48538;32.784;-96.802;2022-07-06T09:38:09;27.60;99.90
19809;DHT22;48538;32.784;-96.802;2022-07-06T09:40:41;27.60;99.90
19809;DHT22;48538;32.784;-96.802;2022-07-06T09:43:14;27.60;99.90
19809;DHT22;48538;32.784;-96.802;2022-07-06T09:45:43;27.50;99.90
19809;DHT22;48538;32.784;-96.802;2022-07-06T09:48:15;27.60;99.90
19809;DHT22;48538;32.784;-96.802;2022-07-06T09:51:07;27.60;99.90
19809;DHT22;48538;32.784;-96.802;2022-07-06T09:53:35;27.60;99.90
19809;DHT22;48538;32.784;-96.802;2022-07-06T09:56:01;27.50;99.90
19809;DHT22;48538;32.784;-96.802;2022-07-06T09:58:28;27.40;99.90
19809;DHT22;48538;32.784;-96.802;2022-07-06T10:00:54;27.50;99.90
19809;DHT22;48538;32.784;-96.802;2022-07-06T10:03:21;27.40;99.90
19809;DHT22;48538;32.784;-96.802;2022-07-06T10:05:48;27.40;99.90
19809;DHT22;48538;32.784;-96.802;2022-07-06T10:08:16;27.50;99.90
19809;DHT22;48538;32.784;-96.802;2022-07-06T10:10:43;27.40;99.90
19809;DHT22;48538;32.784;-96.802;2022-07-06T10:13:11;27.40;99.90
19809;DHT22;48538;32.784;-96.802;2022-07-06T10:15:39;27.40;99.90
19809;DHT22;48538;32.784;-96.802;2022-07-06T10:18:07;27.40;99.90
19809;DHT22;48538;32.784;-96.802;2022-07-06T10:20:37;27.40;99.90
19809;DHT22;48538;32.784;-96.802;2022-07-06T10:23:05;27.40;99.90
19809;DHT22;48538;32.784;-96.802;2022-07-06T10:25:34;27.30;99.90
19809;DHT22;48538;32.784;-96.802;2022-07-06T10:28:01;27.30;99.90
19809;DHT22;48538;32.784;-96.802;2022-07-06T10:30:28;27.30;99.90
19809;DHT22;48538;32.784;-96.802;2022-07-06T10:32:57;27.30;99.90
19809;DHT22;48538;32.784;-96.802;2022-07-06T10:35:24;27.30;99.90
19809;DHT22;48538;32.784;-96.802;2022-07-06T10:38:17;27.30;99.90
19809;DHT22;48538;32.784;-96.802;2022-07-06T10:40:45;27.30;99.90
19809;DHT22;48538;32.784;-96.802;2022-07-06T10:43:37;27.30;99.90
19809;DHT22;48538;32.784;-96.802;2022-07-06T10:46:11;27.30;99.90
19809;DHT22;48538;32.784;-96.802;2022-07-06T10:48:42;27.20;99.90
19809;DHT22;48538;32.784;-96.802;2022-07-06T10:51:11;27.20;99.90
19809;DHT22;48538;32.784;-96.802;2022-07-06T10:53:39;27.20;99.90
19809;DHT22;48538;32.784;-96.802;2022-07-06T10:56:10;27.20;99.90
19809;DHT22;48538;32.784;-96.802;2022-07-06T10:58:46;27.10;99.90
19809;DHT22;48538;32.784;-96.802;2022-07-06T11:01:15;27.10;99.90
19809;DHT22;48538;32.784;-96.802;2022-07-06T11:03:50;27.20;99.90
19809;DHT22;48538;32.784;-96.802;2022-07-06T11:06:32;27.10;99.90
19809;DHT22;48538;32.784;-96.802;2022-07-06T11:09:03;27.10;99.90
19809;DHT22;48538;32.784;-96.802;2022-07-06T11:19:19;27.00;99.90
19809;DHT22;48538;32.784;-96.802;2022-07-06T11:24:42;26.90;99.90
19809;DHT22;48538;32.784;-96.802;2022-07-06T11:27:08;26.90;99.90
19809;DHT22;48538;32.784;-96.802;2022-07-06T11:29:35;26.90;99.90
19809;DHT22;48538;32.784;-96.802;2022-07-06T11:32:06;26.90;99.90
19809;DHT22;48538;32.784;-96.802;2022-07-06T11:34:37;27.00;99.90
19809;DHT22;48538;32.784;-96.802;2022-07-06T11:37:07;27.00;99.90
19809;DHT22;48538;32.784;-96.802;2022-07-06T11:39:35;26.90;99.90
19809;DHT22;48538;32.784;-96.802;2022-07-06T11:42:03;27.00;99.90
19809;DHT22;48538;32.784;-96.802;2022-07-06T11:44:30;27.00;99.90
19809;DHT22;48538;32.784;-96.802;2022-07-06T11:46:57;27.00;99.90
19809;DHT22;48538;32.784;-96.802;2022-07-06T11:49:26;27.00;99.90
19809;DHT22;48538;32.784;-96.802;2022-07-06T11:51:52;27.00;99.90
19809;DHT22;48538;32.784;-96.802;2022-07-06T11:54:20;26.90;99.90
19809;DHT22;48538;32.784;-96.802;2022-07-06T11:56:55;26.90;99.90
19809;DHT22;48538;32.784;-96.802;2022-07-06T11:59:24;27.00;99.90
19809;DHT22;48538;32.784;-96.802;2022-07-06T12:01:58;27.00;99.90
19809;DHT22;48538;32.784;-96.802;2022-07-06T12:04:25;27.00;99.90
19809;DHT22;48538;32.784;-96.802;2022-07-06T12:06:51;27.00;99.90
19809;DHT22;48538;32.784;-96.802;2022-07-06T12:09:18;27.00;99.90
19809;DHT22;48538;32.784;-96.802;2022-07-06T12:11:46;27.00;99.90
19809;DHT22;48538;32.784;-96.802;2022-07-06T12:14:18;27.00;99.90
19809;DHT22;48538;32.784;-96.802;2022-07-06T12:16:46;27.00;99.90
19809;DHT22;48538;32.784;-96.802;2022-07-06T12:19:14;27.00;99.90
19809;DHT22;48538;32.784;-96.802;2022-07-06T12:21:48;27.00;99.90
19809;DHT22;48538;32.784;-96.802;2022-07-06T12:24:23;27.00;99.90
19809;DHT22;48538;32.784;-96.802;2022-07-06T12:26:51;27.10;99.90
19809;DHT22;48538;32.784;-96.802;2022-07-06T12:29:18;27.10;99.90
19809;DHT22;48538;32.784;-96.802;2022-07-06T12:31:55;27.10;99.90
19809;DHT22;48538;32.784;-96.802;2022-07-06T12:34:27;27.10;99.90
19809;DHT22;48538;32.784;-96.802;2022-07-06T12:36:55;27.20;99.90
19809;DHT22;48538;32.784;-96.802;2022-07-06T12:39:23;27.20;99.90
19809;DHT22;48538;32.784;-96.802;2022-07-06T12:42:00;27.20;99.90
19809;DHT22;48538;32.784;-96.802;2022-07-06T12:44:27;27.20;99.90
19809;DHT22;48538;32.784;-96.802;2022-07-06T12:47:07;27.30;99.90
19809;DHT22;48538;32.784;-96.802;2022-07-06T12:49:35;27.40;99.90
19809;DHT22;48538;32.784;-96.802;2022-07-06T12:52:09;27.40;99.90
19809;DHT22;48538;32.784;-96.802;2022-07-06T12:57:24;27.60;99.90
19809;DHT22;48538;32.784;-96.802;2022-07-06T13:02:32;27.60;99.90
19809;DHT22;48538;32.784;-96.802;2022-07-06T13:05:06;27.70;99.90
19809;DHT22;48538;32.784;-96.802;2022-07-06T13:07:34;27.80;99.90
19809;DHT22;48538;32.784;-96.802;2022-07-06T13:10:08;27.80;99.90
19809;DHT22;48538;32.784;-96.802;2022-07-06T13:12:35;27.80;99.90
19809;DHT22;48538;32.784;-96.802;2022-07-06T13:15:02;27.90;99.90
19809;DHT22;48538;32.784;-96.802;2022-07-06T13:17:29;27.90;99.90
19809;DHT22;48538;32.784;-96.802;2022-07-06T13:19:55;27.90;99.90
19809;DHT22;48538;32.784;-96.802;2022-07-06T13:22:21;27.90;99.90
19809;DHT22;48538;32.784;-96.802;2022-07-06T13:24:48;27.90;99.90
19809;DHT22;48538;32.784;-96.802;2022-07-06T13:27:14;28.00;99.90
19809;DHT22;48538;32.784;-96.802;2022-07-06T13:29:40;28.00;99.90
19809;DHT22;48538;32.784;-96.802;2022-07-06T13:32:07;28.00;99.90
19809;DHT22;48538;32.784;-96.802;2022-07-06T13:34:34;28.00;99.90
19809;DHT22;48538;32.784;-96.802;2022-07-06T13:37:04;28.00;99.90
19809;DHT22;48538;32.784;-96.802;2022-07-06T13:39:31;28.00;99.90
19809;DHT22;48538;32.784;-96.802;2022-07-06T13:41:57;28.00;99.90
19809;DHT22;48538;32.784;-96.802;2022-07-06T13:44:24;28.10;99.90
19809;DHT22;48538;32.784;-96.802;2022-07-06T13:46:50;28.20;99.90
19809;DHT22;48538;32.784;-96.802;2022-07-06T13:49:17;28.20;99.90
19809;DHT22;48538;32.784;-96.802;2022-07-06T13:51:43;28.20;99.90
19809;DHT22;48538;32.784;-96.802;2022-07-06T13:54:10;28.30;99.90
19809;DHT22;48538;32.784;-96.802;2022-07-06T13:56:38;28.20;99.90
19809;DHT22;48538;32.784;-96.802;2022-07-06T13:59:05;28.30;99.90
19809;DHT22;48538;32.784;-96.802;2022-07-06T14:01:31;28.30;99.90
19809;DHT22;48538;32.784;-96.802;2022-07-06T14:03:58;28.30;99.90
19809;DHT22;48538;32.784;-96.802;2022-07-06T14:06:24;28.40;99.90
19809;DHT22;48538;32.784;-96.802;2022-07-06T14:08:50;28.40;99.90
19809;DHT22;48538;32.784;-96.802;2022-07-06T14:11:17;28.40;99.90
19809;DHT22;48538;32.784;-96.802;2022-07-06T14:13:43;28.40;99.90
19809;DHT22;48538;32.784;-96.802;2022-07-06T14:16:10;28.40;99.90
19809;DHT22;48538;32.784;-96.802;2022-07-06T14:18:36;28.50;99.90
19809;DHT22;48538;32.784;-96.802;2022-07-06T14:21:02;28.40;99.90
19809;DHT22;48538;32.784;-96.802;2022-07-06T14:23:32;28.50;99.90
19809;DHT22;48538;32.784;-96.802;2022-07-06T14:25:58;28.60;99.90
19809;DHT22;48538;32.784;-96.802;2022-07-06T14:28:25;28.60;99.90
19809;DHT22;48538;32.784;-96.802;2022-07-06T14:30:51;28.70;99.90
19809;DHT22;48538;32.784;-96.802;2022-07-06T14:33:17;28.70;99.90
19809;DHT22;48538;32.784;-96.802;2022-07-06T14:35:46;28.70;99.90
19809;DHT22;48538;32.784;-96.802;2022-07-06T14:38:14;28.70;99.90
19809;DHT22;48538;32.784;-96.802;2022-07-06T14:40:41;28.70;99.90
19809;DHT22;48538;32.784;-96.802;2022-07-06T14:43:07;28.70;99.90
19809;DHT22;48538;32.784;-96.802;2022-07-06T14:45:34;28.80;99.90
19809;DHT22;48538;32.784;-96.802;2022-07-06T14:48:00;28.80;99.90
19809;DHT22;48538;32.784;-96.802;2022-07-06T14:50:28;28.90;99.90
19809;DHT22;48538;32.784;-96.802;2022-07-06T14:52:54;28.80;99.90
19809;DHT22;48538;32.784;-96.802;2022-07-06T14:55:21;28.90;99.90
19809;DHT22;48538;32.784;-96.802;2022-07-06T14:57:47;28.90;99.90
19809;DHT22;48538;32.784;-96.802;2022-07-06T15:00:15;29.00;99.90
19809;DHT22;48538;32.784;-96.802;2022-07-06T15:02:42;29.00;99.90
19809;DHT22;48538;32.784;-96.802;2022-07-06T15:05:10;29.20;99.90
19809;DHT22;48538;32.784;-96.802;2022-07-06T15:07:37;29.20;99.90
19809;DHT22;48538;32.784;-96.802;2022-07-06T15:10:05;29.40;99.90
19809;DHT22;48538;32.784;-96.802;2022-07-06T15:12:31;29.40;99.90
19809;DHT22;48538;32.784;-96.802;2022-07-06T15:14:58;29.30;99.90
19809;DHT22;48538;32.784;-96.802;2022-07-06T15:17:24;29.30;99.90
19809;DHT22;48538;32.784;-96.802;2022-07-06T15:19:50;29.30;99.90
19809;DHT22;48538;32.784;-96.802;2022-07-06T15:22:16;29.30;99.90
19809;DHT22;48538;32.784;-96.802;2022-07-06T15:24:43;29.30;99.90
19809;DHT22;48538;32.784;-96.802;2022-07-06T15:27:09;29.30;99.90